Time;durP1;ratioP1;P1;durP2;ratioP2;P2;SDS_P1;SDS_P2;PMS_P1;PMS_P2;Temp;Humidity;BMP_temperature;BMP_pressure;BME280_temperature;BME280_humidity;BME280_pressure;Samples;Min_cycle;Max_cycle;Signal;HPM_P1;HPM_P2
2023/12/14 00:00:12;;;;;;;6.40;5.80;;;;;;;4.40;100.00;95125.22;5022677;28;20021;-67
2023/12/14 00:02:38;;;;;;;7.32;6.60;;;;;;;4.32;100.00;95130.19;5031815;28;20029;-67
2023/12/14 00:05:03;;;;;;;5.50;5.10;;;;;;;4.29;100.00;95139.88;5027214;28;20021;-67
2023/12/14 00:07:29;;;;;;;11.63;10.55;;;;;;;4.35;100.00;95133.38;5018663;28;20045;-67
2023/12/14 00:09:54;;;;;;;14.43;12.88;;;;;;;4.36;100.00;95129.81;5022957;28;20032;-67
2023/12/14 00:12:19;;;;;;;14.93;13.52;;;;;;;4.39;100.00;95134.00;5023319;28;20479;-67
2023/12/14 00:14:45;;;;;;;11.30;10.20;;;;;;;4.38;100.00;95137.53;5021699;28;20100;-67
2023/12/14 00:17:10;;;;;;;13.80;12.40;;;;;;;4.36;100.00;95140.25;5027005;28;20049;-67
2023/12/14 00:19:35;;;;;;;9.40;8.50;;;;;;;4.40;100.00;95146.06;5019966;28;20520;-67
2023/12/14 00:22:01;;;;;;;18.48;16.48;;;;;;;4.40;100.00;95149.50;5025177;28;20032;-67
2023/12/14 00:24:26;;;;;;;11.00;10.00;;;;;;;4.33;100.00;95152.72;5024131;28;20034;-67
2023/12/14 00:26:52;;;;;;;10.65;8.73;;;;;;;4.34;100.00;95159.59;5022652;28;20105;-67
2023/12/14 00:29:17;;;;;;;8.82;7.38;;;;;;;4.33;100.00;95161.34;5022280;28;20242;-67
2023/12/14 00:31:42;;;;;;;10.30;7.40;;;;;;;4.32;100.00;95159.69;5018001;28;20540;-67
2023/12/14 00:34:08;;;;;;;9.23;6.93;;;;;;;4.37;100.00;95161.94;5028288;28;20029;-67
2023/12/14 00:36:33;;;;;;;8.90;8.05;;;;;;;4.34;100.00;95167.41;5028240;28;20025;-67
2023/12/14 00:38:58;;;;;;;10.68;9.65;;;;;;;4.30;100.00;95172.81;5021694;28;20017;-67
2023/12/14 00:41:24;;;;;;;12.80;11.57;;;;;;;4.34;100.00;95167.41;5024830;28;20605;-67
2023/12/14 00:43:49;;;;;;;6.93;6.22;;;;;;;4.32;100.00;95184.94;5024168;28;20040;-66
2023/12/14 00:46:15;;;;;;;7.63;6.03;;;;;;;4.36;100.00;95183.75;5019298;28;20032;-67
2023/12/14 00:48:40;;;;;;;10.82;6.53;;;;;;;4.39;100.00;95180.91;5019903;28;20097;-66
2023/12/14 00:51:06;;;;;;;6.35;5.78;;;;;;;4.46;100.00;95183.88;5027562;28;20479;-67
2023/12/14 00:53:31;;;;;;;7.22;6.63;;;;;;;4.45;100.00;95190.84;5021409;28;20572;-66
2023/12/14 00:55:57;;;;;;;6.47;5.88;;;;;;;4.46;100.00;95197.72;5028420;28;20026;-66
2023/12/14 00:58:22;;;;;;;6.70;5.82;;;;;;;4.43;100.00;95200.56;5019301;28;20025;-67
2023/12/14 01:00:47;;;;;;;8.45;7.75;;;;;;;4.38;100.00;95200.09;5021643;28;20040;-66
2023/12/14 01:03:13;;;;;;;7.03;6.32;;;;;;;4.34;100.00;95193.47;5022513;28;20021;-66
2023/12/14 01:05:38;;;;;;;7.55;6.85;;;;;;;4.34;100.00;95206.50;5026695;28;20029;-66
2023/12/14 01:08:04;;;;;;;7.35;6.65;;;;;;;4.35;100.00;95202.94;5021911;28;20030;-67
2023/12/14 01:10:29;;;;;;;7.88;7.18;;;;;;;4.33;100.00;95204.84;5028098;28;20030;-66
2023/12/14 01:12:55;;;;;;;6.85;6.25;;;;;;;4.36;100.00;95204.59;5021851;28;20025;-66
2023/12/14 01:15:20;;;;;;;8.32;7.43;;;;;;;4.37;100.00;95211.47;5018178;28;20064;-66
2023/12/14 01:17:45;;;;;;;7.00;6.13;;;;;;;4.33;100.00;95207.44;5026482;28;20094;-67
2023/12/14 01:20:11;;;;;;;7.40;6.10;;;;;;;4.26;100.00;95212.28;5021928;28;20024;-66
2023/12/14 01:22:36;;;;;;;6.13;5.53;;;;;;;4.26;100.00;95212.28;5021762;28;20117;-67
2023/12/14 01:25:02;;;;;;;6.60;6.10;;;;;;;4.28;100.00;95213.81;5019744;28;20030;-67
2023/12/14 01:27:27;;;;;;;6.60;6.03;;;;;;;4.26;100.00;95220.91;5020303;28;20013;-67
2023/12/14 01:29:53;;;;;;;5.47;5.05;;;;;;;4.25;100.00;95221.03;5016442;28;20581;-67
2023/12/14 01:32:19;;;;;;;6.32;5.72;;;;;;;4.28;100.00;95223.41;5017383;28;20482;-67
2023/12/14 01:34:44;;;;;;;7.53;6.85;;;;;;;4.29;100.00;95222.47;5033124;28;20035;-67
2023/12/14 01:37:10;;;;;;;8.80;7.15;;;;;;;4.27;100.00;95225.19;5017513;28;20572;-67
2023/12/14 01:39:35;;;;;;;8.02;6.75;;;;;;;4.31;100.00;95220.56;5022626;28;20156;-67
2023/12/14 01:42:01;;;;;;;16.20;13.63;;;;;;;4.28;100.00;95224.22;5024272;28;20079;-66
2023/12/14 01:44:26;;;;;;;8.57;7.78;;;;;;;4.27;100.00;95222.56;5019784;28;20026;-66
2023/12/14 01:46:51;;;;;;;12.70;11.40;;;;;;;4.29;100.00;95222.47;5019298;28;20101;-67
2023/12/14 01:49:17;;;;;;;10.88;9.88;;;;;;;4.30;100.00;95231.94;5020750;28;20026;-66
2023/12/14 01:51:42;;;;;;;10.25;8.80;;;;;;;4.29;100.00;95231.09;5016153;28;20025;-67
2023/12/14 01:54:08;;;;;;;8.02;7.07;;;;;;;4.28;100.00;95226.84;5022844;28;20065;-67
2023/12/14 01:56:33;;;;;;;7.25;6.65;;;;;;;4.28;100.00;95236.44;5015003;28;20026;-67
2023/12/14 01:58:58;;;;;;;9.20;8.50;;;;;;;4.27;100.00;95237.38;5027280;28;20036;-66
2023/12/14 02:01:45;;;;;;;7.20;6.55;;;;;;;4.32;100.00;95239.66;5036229;28;20141;-67
2023/12/14 02:04:12;;;;;;;9.75;8.95;;;;;;;4.34;100.00;95240.38;5021458;28;20506;-67
2023/12/14 02:06:37;;;;;;;9.63;7.38;;;;;;;4.36;100.00;95243.69;5021622;28;20033;-67
2023/12/14 02:09:03;;;;;;;12.65;10.98;;;;;;;4.36;100.00;95241.91;5028752;28;20104;-67
2023/12/14 02:11:28;;;;;;;23.48;17.33;;;;;;;4.34;100.00;95245.59;5023809;28;20033;-67
2023/12/14 02:13:54;;;;;;;21.38;16.92;;;;;;;4.31;100.00;95246.63;5016882;28;20029;-67
2023/12/14 02:16:19;;;;;;;9.88;8.93;;;;;;;4.41;100.00;95246.78;5026127;28;20084;-67
2023/12/14 02:18:45;;;;;;;13.25;9.30;;;;;;;4.52;100.00;95253.78;5020122;28;20034;-67
2023/12/14 02:21:10;;;;;;;12.15;9.85;;;;;;;4.37;100.00;95261.00;5026231;28;20081;-67
2023/12/14 02:23:43;;;;;;;13.32;10.57;;;;;;;4.36;100.00;95251.53;5014697;28;20026;-66
2023/12/14 02:26:08;;;;;;;13.60;9.98;;;;;;;4.33;100.00;95264.78;5027461;28;20553;-67
2023/12/14 02:28:34;;;;;;;11.38;9.20;;;;;;;4.29;100.00;95274.59;5030327;28;20124;-67
2023/12/14 02:30:59;;;;;;;9.80;8.48;;;;;;;4.27;100.00;95273.88;5020066;28;20068;-66
2023/12/14 02:33:24;;;;;;;8.60;7.35;;;;;;;4.22;100.00;95273.41;5035811;28;20383;-66
2023/12/14 02:35:50;;;;;;;11.90;8.70;;;;;;;4.19;100.00;95274.44;5017335;28;20056;-67
2023/12/14 02:38:15;;;;;;;8.93;8.02;;;;;;;4.21;100.00;95272.53;5020568;28;20044;-66
2023/12/14 02:40:40;;;;;;;14.52;11.70;;;;;;;4.25;100.00;95273.97;5018377;28;20033;-67
2023/12/14 02:43:06;;;;;;;20.38;17.42;;;;;;;4.28;100.00;95284.16;5021052;28;20679;-67
2023/12/14 02:45:31;;;;;;;19.35;17.23;;;;;;;4.29;100.00;95280.63;5023661;28;20036;-66
2023/12/14 02:47:56;;;;;;;17.25;15.55;;;;;;;4.30;100.00;95282.28;5023081;28;20025;-67
2023/12/14 02:50:22;;;;;;;18.60;15.57;;;;;;;4.34;100.00;95282.06;5024475;28;20033;-66
2023/12/14 02:52:47;;;;;;;14.00;12.60;;;;;;;4.38;100.00;95289.53;5024814;28;20074;-67
2023/12/14 02:55:13;;;;;;;14.13;12.63;;;;;;;4.36;100.00;95288.00;5024941;28;20021;-66
2023/12/14 02:57:38;;;;;;;14.80;13.40;;;;;;;4.28;100.00;95286.78;5020168;28;20045;-67
2023/12/14 03:00:05;;;;;;;12.65;10.88;;;;;;;4.27;100.00;95285.13;5022503;28;20026;-66
2023/12/14 03:02:30;;;;;;;14.70;13.30;;;;;;;4.30;100.00;95291.88;5025011;28;20038;-66
2023/12/14 03:04:56;;;;;;;15.00;12.93;;;;;;;4.32;100.00;95291.78;5020104;28;20113;-66
2023/12/14 03:07:21;;;;;;;11.60;10.10;;;;;;;4.35;100.00;95294.97;5026896;28;20174;-66
2023/12/14 03:09:46;;;;;;;10.40;9.40;;;;;;;4.38;100.00;95288.72;5013409;28;20030;-66
2023/12/14 03:12:12;;;;;;;10.57;9.45;;;;;;;4.40;100.00;95289.44;5025630;28;20034;-66
2023/12/14 03:14:37;;;;;;;10.93;9.77;;;;;;;4.45;100.00;95297.75;5019711;28;20034;-66
2023/12/14 03:17:03;;;;;;;11.80;9.52;;;;;;;4.39;100.00;95299.00;5028936;28;20061;-66
2023/12/14 03:19:28;;;;;;;9.30;8.40;;;;;;;4.37;100.00;95297.50;5033019;28;20033;-66
2023/12/14 03:21:54;;;;;;;9.95;8.95;;;;;;;4.37;100.00;95302.69;5034652;28;20386;-66
2023/12/14 03:24:20;;;;;;;9.35;8.20;;;;;;;4.40;100.00;95311.09;5033303;28;20557;-66
2023/12/14 03:26:45;;;;;;;12.95;8.65;;;;;;;4.37;100.00;95306.13;5034301;28;20033;-67
2023/12/14 03:29:11;;;;;;;10.95;8.65;;;;;;;4.34;100.00;95313.34;5014807;28;20026;-66
2023/12/14 03:31:36;;;;;;;12.57;11.10;;;;;;;4.34;100.00;95321.19;5027262;28;20025;-67
2023/12/14 03:34:02;;;;;;;13.07;10.90;;;;;;;4.36;100.00;95324.50;5026854;28;20030;-67
2023/12/14 03:36:28;;;;;;;8.23;6.90;;;;;;;4.33;100.00;95314.31;5020053;28;20030;-67
2023/12/14 03:38:53;;;;;;;8.50;7.70;;;;;;;4.34;100.00;95324.59;5014849;28;20112;-66
2023/12/14 03:41:19;;;;;;;8.80;7.68;;;;;;;4.38;100.00;95333.84;5022910;28;20022;-67
2023/12/14 03:43:44;;;;;;;7.65;6.95;;;;;;;4.38;100.00;95331.25;5031336;28;20034;-66
2023/12/14 03:46:10;;;;;;;6.60;5.90;;;;;;;4.40;100.00;95339.78;5015670;28;20089;-67
2023/12/14 03:48:35;;;;;;;8.15;6.32;;;;;;;4.34;100.00;95340.22;5030754;28;20053;-66
2023/12/14 03:51:05;;;;;;;6.32;5.70;;;;;;;4.38;100.00;95349.47;5032924;28;20037;-67
2023/12/14 03:53:30;;;;;;;7.78;6.03;;;;;;;4.37;100.00;95349.63;5025292;28;20050;-66
2023/12/14 03:55:57;;;;;;;7.63;6.93;;;;;;;4.34;100.00;95357.66;5022988;28;20033;-66
2023/12/14 03:58:23;;;;;;;7.65;6.63;;;;;;;4.27;100.00;95358.09;5025297;28;20025;-66
2023/12/14 04:00:48;;;;;;;6.35;5.72;;;;;;;4.28;100.00;95357.13;5023210;28;20037;-67
2023/12/14 04:03:13;;;;;;;7.05;6.53;;;;;;;4.26;100.00;95364.25;5025262;28;20038;-67
2023/12/14 04:05:39;;;;;;;7.82;7.13;;;;;;;4.30;100.00;95364.88;5026027;28;20029;-66
2023/12/14 04:08:04;;;;;;;7.65;6.88;;;;;;;4.31;100.00;95369.13;5021101;28;20105;-66
2023/12/14 04:10:30;;;;;;;7.15;6.35;;;;;;;4.36;100.00;95368.81;5028535;28;20030;-66
2023/12/14 04:12:55;;;;;;;6.68;6.07;;;;;;;4.38;100.00;95382.56;5019843;28;20101;-66
2023/12/14 04:15:21;;;;;;;6.32;5.82;;;;;;;4.34;100.00;95381.13;5029965;28;20022;-66
2023/12/14 04:17:47;;;;;;;6.93;6.30;;;;;;;4.34;100.00;95376.72;5021058;28;20403;-66
2023/12/14 04:20:15;;;;;;;7.30;6.65;;;;;;;4.34;100.00;95375.91;5030905;28;20030;-67
2023/12/14 04:22:41;;;;;;;8.75;7.15;;;;;;;4.34;100.00;95383.72;5026156;28;20076;-67
2023/12/14 04:25:06;;;;;;;10.20;9.30;;;;;;;4.32;100.00;95390.84;5029718;28;20482;-67
2023/12/14 04:27:32;;;;;;;10.00;9.10;;;;;;;4.30;100.00;95385.72;5026144;28;20033;-67
2023/12/14 04:29:57;;;;;;;8.98;8.18;;;;;;;4.38;100.00;95388.59;5024148;28;20041;-67
2023/12/14 04:32:22;;;;;;;9.50;8.05;;;;;;;4.29;100.00;95384.88;5034775;28;20438;-66
2023/12/14 04:34:48;;;;;;;9.77;8.88;;;;;;;4.27;100.00;95388.53;5037001;28;20103;-67
2023/12/14 04:37:13;;;;;;;11.00;9.90;;;;;;;4.30;100.00;95389.13;5036236;28;20030;-66
2023/12/14 04:39:38;;;;;;;9.88;8.88;;;;;;;4.31;100.00;95389.97;5036443;28;20036;-67
2023/12/14 04:42:04;;;;;;;10.52;9.48;;;;;;;4.34;100.00;95391.53;5036505;28;20033;-66
2023/12/14 04:44:29;;;;;;;8.15;7.38;;;;;;;4.33;100.00;95400.31;5024917;28;20506;-66
2023/12/14 04:46:55;;;;;;;6.18;5.57;;;;;;;4.32;100.00;95409.88;5028879;28;20028;-66
2023/12/14 04:49:20;;;;;;;8.32;7.47;;;;;;;4.29;100.00;95404.91;5028999;28;20025;-66
2023/12/14 04:51:46;;;;;;;7.25;5.18;;;;;;;4.28;100.00;95403.25;5031286;28;20017;-66
2023/12/14 04:54:11;;;;;;;6.57;5.85;;;;;;;4.35;100.00;95427.09;5023071;28;20038;-66
2023/12/14 04:56:37;;;;;;;3.72;3.42;;;;;;;4.35;100.00;95425.31;5030742;28;20026;-67
2023/12/14 04:59:02;;;;;;;2.60;2.40;;;;;;;4.30;100.00;95428.22;5030479;28;20031;-66
2023/12/14 05:01:27;;;;;;;2.78;2.55;;;;;;;4.30;100.00;95428.22;5030303;28;20033;-67
2023/12/14 05:03:53;;;;;;;5.38;4.85;;;;;;;4.30;100.00;95427.41;5019275;28;20097;-67
2023/12/14 05:06:19;;;;;;;6.63;5.75;;;;;;;4.27;100.00;95436.28;5031130;28;20032;-67
2023/12/14 05:08:45;;;;;;;5.75;5.25;;;;;;;4.32;100.00;95429.94;5018515;28;20061;-66
2023/12/14 05:11:12;;;;;;;5.47;5.03;;;;;;;4.30;100.00;95436.06;5028897;28;20026;-66
2023/12/14 05:13:37;;;;;;;5.88;4.82;;;;;;;4.30;100.00;95438.66;5030829;28;20484;-66
2023/12/14 05:16:03;;;;;;;6.80;4.20;;;;;;;4.32;100.00;95440.34;5023291;28;20025;-66
2023/12/14 05:18:29;;;;;;;4.57;4.15;;;;;;;4.28;100.00;95443.16;5030119;28;20044;-67
2023/12/14 05:20:55;;;;;;;4.97;4.60;;;;;;;4.35;100.00;95451.38;5024157;28;20033;-66
2023/12/14 05:23:20;;;;;;;6.53;5.95;;;;;;;4.29;100.00;95438.78;5034101;28;20138;-67
2023/12/14 05:25:46;;;;;;;4.30;4.00;;;;;;;4.30;100.00;95443.06;5030657;28;20030;-67
2023/12/14 05:28:11;;;;;;;3.67;3.38;;;;;;;4.29;100.00;95452.63;5016111;28;20057;-67
2023/12/14 05:30:37;;;;;;;5.03;3.42;;;;;;;4.26;100.00;95457.25;5017884;28;20109;-66
2023/12/14 05:33:02;;;;;;;5.93;5.30;;;;;;;4.26;100.00;95460.66;5026147;28;20076;-67
2023/12/14 05:35:28;;;;;;;6.28;4.80;;;;;;;4.27;100.00;95461.53;5022199;28;20043;-67
2023/12/14 05:37:53;;;;;;;3.85;3.58;;;;;;;4.26;100.00;95462.47;5029818;28;20391;-66
2023/12/14 05:40:18;;;;;;;4.78;3.53;;;;;;;4.22;100.00;95472.25;5025273;28;20391;-66
2023/12/14 05:42:44;;;;;;;3.90;3.60;;;;;;;4.20;100.00;95479.34;5022538;28;20159;-66
2023/12/14 05:45:09;;;;;;;3.85;3.60;;;;;;;4.20;100.00;95479.34;5023085;28;20041;-66
2023/12/14 05:47:35;;;;;;;4.07;3.72;;;;;;;4.35;100.00;95481.81;5021648;28;20545;-67
2023/12/14 05:50:01;;;;;;;4.78;4.38;;;;;;;4.33;100.00;95491.53;5012878;28;20433;-66
2023/12/14 05:52:26;;;;;;;4.40;4.07;;;;;;;4.30;100.00;95495.19;5023852;28;20027;-66
2023/12/14 05:54:52;;;;;;;5.05;4.65;;;;;;;4.30;100.00;95505.59;5032674;28;20530;-66
2023/12/14 05:57:17;;;;;;;4.10;3.78;;;;;;;4.29;100.00;95514.38;5025635;28;20028;-67
2023/12/14 05:59:42;;;;;;;2.47;2.38;;;;;;;4.27;100.00;95524.88;5027463;28;20483;-67
2023/12/14 06:02:08;;;;;;;1.90;1.80;;;;;;;4.26;100.00;95533.63;5022148;28;20455;-66
2023/12/14 06:04:33;;;;;;;2.40;2.30;;;;;;;4.24;100.00;95532.91;5035173;28;20013;-67
2023/12/14 06:06:59;;;;;;;4.32;3.92;;;;;;;4.26;100.00;95545.84;5027104;28;20037;-66
2023/12/14 06:09:31;;;;;;;14.05;11.75;;;;;;;4.26;100.00;95551.88;5030509;28;20394;-66
2023/12/14 06:11:57;;;;;;;7.28;6.65;;;;;;;4.28;100.00;95555.22;5017466;28;20029;-66
2023/12/14 06:14:22;;;;;;;3.75;3.55;;;;;;;4.32;100.00;95562.84;5022267;28;20023;-67
2023/12/14 06:16:48;;;;;;;5.15;3.95;;;;;;;4.29;100.00;95564.69;5032380;28;20028;-67
2023/12/14 06:19:13;;;;;;;6.45;5.95;;;;;;;4.35;100.00;95580.88;5023332;28;20035;-67
2023/12/14 06:21:38;;;;;;;18.27;14.80;;;;;;;4.30;100.00;95595.03;5019331;28;20022;-67
2023/12/14 06:24:04;;;;;;;15.07;12.93;;;;;;;4.26;100.00;95604.00;5025732;28;20029;-67
2023/12/14 06:26:30;;;;;;;7.20;6.43;;;;;;;4.23;100.00;95617.25;5023233;28;20032;-67
2023/12/14 06:28:56;;;;;;;3.45;3.25;;;;;;;4.22;100.00;95612.97;5024639;28;20059;-67
2023/12/14 06:31:21;;;;;;;3.17;2.97;;;;;;;4.27;100.00;95623.09;5022332;28;20034;-65
2023/12/14 06:33:48;;;;;;;2.75;2.55;;;;;;;4.27;100.00;95626.53;5024404;28;20030;-67
2023/12/14 06:36:17;;;;;;;1.70;1.60;;;;;;;4.26;100.00;95629.25;5020619;28;20030;-66
2023/12/14 06:38:42;;;;;;;2.13;2.03;;;;;;;4.24;100.00;95639.78;5021367;28;20550;-67
2023/12/14 06:41:08;;;;;;;2.15;2.05;;;;;;;4.26;100.00;95650.91;5021208;28;20068;-67
2023/12/14 06:43:34;;;;;;;4.88;4.57;;;;;;;4.29;100.00;95648.09;5019143;28;20565;-66
2023/12/14 06:45:59;;;;;;;5.78;5.28;;;;;;;4.27;100.00;95656.97;5025035;28;20029;-67
2023/12/14 06:48:24;;;;;;;4.68;4.38;;;;;;;4.26;100.00;95650.91;5029603;28;20022;-67
2023/12/14 06:50:50;;;;;;;4.63;4.30;;;;;;;4.36;100.00;95666.78;5020108;28;20040;-67
2023/12/14 06:53:15;;;;;;;6.40;5.70;;;;;;;4.32;100.00;95667.09;5021677;28;20076;-65
2023/12/14 06:55:41;;;;;;;5.40;4.93;;;;;;;4.31;100.00;95674.06;5033801;28;20021;-68
2023/12/14 06:58:11;;;;;;;3.60;3.40;;;;;;;4.27;100.00;95673.44;5021569;28;20022;-66
2023/12/14 07:00:37;;;;;;;3.55;3.35;;;;;;;4.26;100.00;95678.78;5025922;28;20104;-68
2023/12/14 07:03:03;;;;;;;2.90;2.70;;;;;;;4.26;100.00;95692.63;5033343;28;20756;-68
2023/12/14 07:05:28;;;;;;;3.50;3.20;;;;;;;4.25;100.00;95685.75;5026338;28;20043;-66
2023/12/14 07:07:54;;;;;;;10.98;8.98;;;;;;;4.26;100.00;95700.44;5034588;28;20028;-68
2023/12/14 07:10:19;;;;;;;10.25;9.20;;;;;;;4.27;100.00;95698.69;5032220;28;20029;-67
2023/12/14 07:12:44;;;;;;;6.53;5.90;;;;;;;4.22;100.00;95705.97;5020126;28;20021;-67
2023/12/14 07:15:10;;;;;;;11.80;5.93;;;;;;;4.17;100.00;95701.06;5017956;28;20121;-66
2023/12/14 07:17:35;;;;;;;8.77;7.70;;;;;;;4.21;100.00;95704.31;5026535;28;20026;-67
2023/12/14 07:20:01;;;;;;;7.90;7.00;;;;;;;4.25;100.00;95709.19;5030352;28;20033;-66
2023/12/14 07:22:26;;;;;;;8.57;5.80;;;;;;;4.24;100.00;95714.53;5021240;28;20026;-66
2023/12/14 07:24:51;;;;;;;5.90;5.30;;;;;;;4.26;100.00;95716.06;5020867;28;20103;-66
2023/12/14 07:27:17;;;;;;;5.25;4.78;;;;;;;4.29;100.00;95720.25;5025168;28;20049;-67
2023/12/14 07:29:42;;;;;;;7.32;6.70;;;;;;;4.28;100.00;95722.03;5018884;28;20056;-68
2023/12/14 07:32:07;;;;;;;21.85;19.75;;;;;;;4.28;100.00;95729.03;5027892;28;20036;-67
2023/12/14 07:34:33;;;;;;;19.48;17.67;;;;;;;4.33;100.00;95733.94;5015791;28;20060;-65
2023/12/14 07:36:59;;;;;;;11.73;10.50;;;;;;;4.33;100.00;95745.19;5021621;28;20072;-67
2023/12/14 07:39:26;;;;;;;10.77;9.95;;;;;;;4.39;100.00;95738.72;5031083;28;20018;-69
2023/12/14 07:41:51;;;;;;;9.88;9.00;;;;;;;4.38;100.00;95737.88;5032251;28;20483;-67
2023/12/14 07:44:16;;;;;;;7.28;6.30;;;;;;;4.37;100.00;95751.03;5024582;28;20035;-67
2023/12/14 07:46:43;;;;;;;8.10;7.30;;;;;;;4.43;100.00;95755.84;5029480;28;20134;-67
2023/12/14 07:49:08;;;;;;;10.68;9.65;;;;;;;4.46;100.00;95765.22;5026618;28;20066;-67
2023/12/14 07:51:34;;;;;;;5.65;5.18;;;;;;;4.44;100.00;95767.94;5024698;28;20105;-67
2023/12/14 07:53:59;;;;;;;4.07;3.60;;;;;;;4.41;100.00;95761.13;5028061;28;20054;-68
2023/12/14 07:56:27;;;;;;;3.47;3.28;;;;;;;4.40;100.00;95767.28;5025829;28;20028;-67
2023/12/14 07:58:53;;;;;;;2.78;2.67;;;;;;;4.55;100.00;95777.66;5019072;28;20033;-68
2023/12/14 08:01:18;;;;;;;6.70;6.20;;;;;;;4.48;100.00;95779.00;5021386;28;20040;-69
2023/12/14 08:03:43;;;;;;;13.88;12.68;;;;;;;4.47;100.00;95788.59;5024141;28;20029;-68
2023/12/14 08:06:09;;;;;;;8.55;7.75;;;;;;;4.48;100.00;95792.03;5019588;28;20033;-66
2023/12/14 08:08:34;;;;;;;8.30;5.63;;;;;;;4.51;100.00;95797.88;5023738;28;20081;-66
2023/12/14 08:10:59;;;;;;;4.78;4.32;;;;;;;4.52;100.00;95802.13;5024710;28;20037;-66
2023/12/14 08:13:25;;;;;;;4.13;3.83;;;;;;;4.51;100.00;95804.88;5028315;28;20021;-66
2023/12/14 08:15:50;;;;;;;4.88;4.47;;;;;;;4.53;100.00;95818.63;5032470;28;20029;-66
2023/12/14 08:18:16;;;;;;;5.90;5.30;;;;;;;4.55;100.00;95825.44;5031994;28;20490;-66
2023/12/14 08:20:41;;;;;;;9.18;8.00;;;;;;;4.61;100.00;95841.59;5028785;28;20104;-67
2023/12/14 08:23:07;;;;;;;4.85;4.45;;;;;;;4.61;100.00;95844.22;5029875;28;20029;-66
2023/12/14 08:25:32;;;;;;;5.68;5.18;;;;;;;4.56;100.00;95845.34;5030944;28;20060;-67
2023/12/14 08:27:57;;;;;;;6.40;5.55;;;;;;;4.53;100.00;95849.91;5029259;28;20035;-67
2023/12/14 08:30:23;;;;;;;18.48;13.00;;;;;;;4.48;100.00;95859.81;5033579;28;20029;-67
2023/12/14 08:32:49;;;;;;;9.77;8.77;;;;;;;4.46;100.00;95859.91;5020093;28;20054;-67
2023/12/14 08:35:14;;;;;;;8.25;7.43;;;;;;;4.44;100.00;95853.97;5029085;28;20081;-67
2023/12/14 08:37:40;;;;;;;10.15;9.07;;;;;;;4.48;100.00;95860.66;5030440;28;20033;-67
2023/12/14 08:40:07;;;;;;;7.57;6.88;;;;;;;4.53;100.00;95874.25;5027899;28;20051;-67
2023/12/14 08:42:32;;;;;;;3.72;3.40;;;;;;;4.62;100.00;95870.16;5029171;28;20550;-66
2023/12/14 08:44:58;;;;;;;3.45;3.20;;;;;;;4.71;100.00;95880.00;5030809;28;20029;-67
2023/12/14 08:47:23;;;;;;;3.15;2.85;;;;;;;4.66;100.00;95883.84;5025708;28;20044;-67
2023/12/14 08:49:48;;;;;;;4.15;3.85;;;;;;;4.61;100.00;95894.56;5027433;28;20083;-67
2023/12/14 08:52:14;;;;;;;3.40;3.20;;;;;;;4.67;100.00;95898.56;5003129;28;20395;-67
2023/12/14 08:54:40;;;;;;;3.90;3.60;;;;;;;4.69;100.00;95907.97;5027065;28;20109;-67
2023/12/14 08:57:05;;;;;;;4.75;4.35;;;;;;;4.80;100.00;95914.25;5023408;28;20037;-67
2023/12/14 08:59:31;;;;;;;3.95;3.63;;;;;;;4.78;100.00;95926.56;5021143;28;20109;-68
2023/12/14 09:01:56;;;;;;;5.70;5.22;;;;;;;4.74;100.00;95933.72;5022275;28;20112;-67
2023/12/14 09:04:21;;;;;;;3.08;2.88;;;;;;;4.86;100.00;95938.16;5020100;28;20055;-68
2023/12/14 09:06:47;;;;;;;3.35;3.15;;;;;;;4.83;100.00;95953.16;5028852;28;20071;-67
2023/12/14 09:09:12;;;;;;;2.28;2.15;;;;;;;4.96;100.00;95961.88;5025387;28;20040;-67
2023/12/14 09:11:38;;;;;;;3.42;3.22;;;;;;;4.85;100.00;95970.41;5029934;28;20709;-68
2023/12/14 09:14:03;;;;;;;2.92;2.83;;;;;;;4.82;100.00;95980.19;5017226;28;20105;-67
2023/12/14 09:16:29;;;;;;;3.08;2.88;;;;;;;4.80;100.00;95993.34;5022378;28;20170;-67
2023/12/14 09:18:54;;;;;;;7.25;6.65;;;;;;;4.78;100.00;95997.00;5021716;28;20086;-66
2023/12/14 09:21:19;;;;;;;5.68;5.15;;;;;;;4.78;100.00;96010.03;5024354;28;20032;-67
2023/12/14 09:23:45;;;;;;;3.90;3.60;;;;;;;4.86;100.00;96023.41;5021828;28;20033;-66
2023/12/14 09:26:10;;;;;;;4.72;4.32;;;;;;;4.88;100.00;96034.59;5031993;28;20035;-66
2023/12/14 09:28:36;;;;;;;4.30;3.70;;;;;;;4.92;100.00;96024.78;5027439;28;20563;-67
2023/12/14 09:31:02;;;;;;;4.05;3.75;;;;;;;4.98;100.00;96029.63;5027338;28;20033;-67
2023/12/14 09:33:27;;;;;;;4.32;3.97;;;;;;;5.03;100.00;96038.00;5024999;28;20108;-66
2023/12/14 09:35:53;;;;;;;6.05;5.55;;;;;;;5.11;100.00;96047.94;5022123;28;20025;-66
2023/12/14 09:38:19;;;;;;;4.90;4.20;;;;;;;5.15;100.00;96046.81;5026674;28;20072;-66
2023/12/14 09:40:44;;;;;;;4.53;4.18;;;;;;;5.22;100.00;96052.47;5027296;28;20113;-66
2023/12/14 09:43:10;;;;;;;10.10;4.70;;;;;;;5.27;100.00;96063.44;5021441;28;20033;-67
2023/12/14 09:45:36;;;;;;;3.70;3.40;;;;;;;5.34;100.00;96074.34;5028365;28;20081;-67
2023/12/14 09:48:02;;;;;;;5.47;3.70;;;;;;;5.26;100.00;96078.25;5020525;28;20040;-67
2023/12/14 09:50:29;;;;;;;4.50;4.10;;;;;;;5.20;100.00;96085.66;5018842;28;20085;-67
2023/12/14 09:52:54;;;;;;;3.20;3.00;;;;;;;5.14;100.00;96100.78;5019481;28;20050;-67
2023/12/14 09:55:20;;;;;;;2.88;2.67;;;;;;;5.06;100.00;96103.03;5025550;28;20126;-67
2023/12/14 09:57:45;;;;;;;2.67;2.50;;;;;;;5.10;100.00;96116.75;5023315;28;20029;-66
2023/12/14 10:00:13;;;;;;;2.97;2.78;;;;;;;5.18;100.00;96122.31;5017593;28;20065;-67
2023/12/14 10:02:40;;;;;;;2.75;2.55;;;;;;;5.14;100.00;96124.25;5023829;28;20026;-67
2023/12/14 10:05:10;;;;;;;3.10;2.90;;;;;;;5.14;100.00;96126.88;5025983;28;20071;-67
2023/12/14 10:07:43;;;;;;;2.30;2.20;;;;;;;5.11;100.00;96137.50;5017419;28;20034;-68
2023/12/14 10:10:13;;;;;;;2.35;2.25;;;;;;;5.13;100.00;96140.03;5026283;28;20493;-67
2023/12/14 10:12:54;;;;;;;2.70;2.60;;;;;;;5.17;100.00;96144.13;5026045;28;20029;-66
2023/12/14 10:15:20;;;;;;;2.47;2.30;;;;;;;5.24;100.00;96152.41;5024269;28;20025;-67
2023/12/14 10:17:52;;;;;;;2.60;2.50;;;;;;;5.24;100.00;96161.06;5022936;28;20030;-67
2023/12/14 10:20:25;;;;;;;3.90;3.60;;;;;;;5.23;100.00;96162.00;5022150;28;20585;-67
2023/12/14 10:22:51;;;;;;;3.63;3.35;;;;;;;5.20;100.00;96169.22;5027924;28;20041;-67
2023/12/14 10:25:18;;;;;;;3.35;3.15;;;;;;;5.23;100.00;96169.00;5025342;28;20059;-67
2023/12/14 10:27:47;;;;;;;4.85;4.38;;;;;;;5.26;100.00;96166.19;5023701;28;20059;-67
2023/12/14 10:30:15;;;;;;;5.93;4.78;;;;;;;5.33;100.00;96170.09;5022038;28;20034;-67
2023/12/14 10:32:41;;;;;;;6.43;5.85;;;;;;;5.43;100.00;96178.16;5024026;28;20037;-67
2023/12/14 10:35:07;;;;;;;5.72;5.30;;;;;;;5.59;100.00;96180.63;5023286;28;20037;-67
2023/12/14 10:37:37;;;;;;;5.60;5.28;;;;;;;5.60;100.00;96184.91;5025050;28;20021;-68
2023/12/14 10:40:05;;;;;;;4.60;4.20;;;;;;;5.65;100.00;96188.09;5023565;28;20108;-67
2023/12/14 10:42:31;;;;;;;4.75;3.22;;;;;;;5.72;100.00;96198.97;5023228;28;20033;-68
2023/12/14 10:45:00;;;;;;;3.28;2.88;;;;;;;5.70;100.00;96203.44;5020355;28;20036;-68
2023/12/14 10:47:26;;;;;;;3.33;3.03;;;;;;;5.70;100.00;96198.22;5026473;28;20030;-68
2023/12/14 10:49:53;;;;;;;7.25;3.85;;;;;;;5.74;100.00;96210.13;5021449;28;20044;-68
2023/12/14 10:52:22;;;;;;;3.95;3.63;;;;;;;5.70;100.00;96209.53;5024511;28;20449;-68
2023/12/14 10:54:52;;;;;;;3.42;3.22;;;;;;;5.76;100.00;96223.97;5023770;28;20132;-67
2023/12/14 10:57:17;;;;;;;4.00;3.70;;;;;;;5.65;100.00;96224.66;5020442;28;20060;-68
2023/12/14 10:59:43;;;;;;;3.33;3.03;;;;;;;5.69;100.00;96228.75;5027559;28;20059;-67
2023/12/14 11:02:09;;;;;;;4.60;4.20;;;;;;;5.71;100.00;96237.31;5019402;28;20446;-67
2023/12/14 11:04:59;;;;;;;4.85;4.45;;;;;;;5.69;100.00;96238.34;5028527;28;20064;-67
2023/12/14 11:07:54;;;;;;;4.15;3.85;;;;;;;5.68;100.00;96252.34;5019215;28;20029;-68
2023/12/14 11:10:26;;;;;;;4.72;4.43;;;;;;;5.64;100.00;96246.50;5020063;28;20529;-66
2023/12/14 11:13:02;;;;;;;3.92;3.63;;;;;;;5.62;100.00;96253.56;5027867;28;20036;-67
2023/12/14 11:15:33;;;;;;;7.53;6.82;;;;;;;5.67;100.00;96259.38;5029220;28;20104;-66
2023/12/14 11:18:18;;;;;;;6.70;6.10;;;;;;;5.76;100.00;96260.56;5029422;28;20036;-68
2023/12/14 11:20:49;;;;;;;4.75;4.38;;;;;;;5.87;100.00;96271.13;5021654;28;20374;-68
2023/12/14 11:23:17;;;;;;;4.22;3.80;;;;;;;6.00;100.00;96268.56;5032087;28;20492;-67
2023/12/14 11:25:43;;;;;;;4.32;4.03;;;;;;;6.16;100.00;96272.84;5028593;28;20486;-67